createdAt,value
2019-03-20T00:00:29.107Z,2.00
2019-03-20T00:02:54.915Z,1.94
2019-03-20T00:05:20.699Z,1.84
2019-03-20T00:07:46.476Z,1.73
2019-03-20T00:10:12.361Z,1.82
2019-03-20T00:12:38.247Z,1.83
2019-03-20T00:15:07.735Z,1.82
2019-03-20T00:17:33.532Z,1.85
2019-03-20T00:19:59.318Z,1.89
2019-03-20T00:22:25.090Z,1.93
2019-03-20T00:24:50.871Z,1.87
2019-03-20T00:27:16.662Z,1.90
2019-03-20T00:29:42.439Z,1.93
2019-03-20T00:32:08.334Z,1.88
2019-03-20T00:34:34.114Z,1.92
2019-03-20T00:36:59.904Z,1.90
2019-03-20T00:39:25.773Z,1.88
2019-03-20T00:41:51.554Z,1.80
2019-03-20T00:44:17.327Z,1.77
2019-03-20T00:46:43.124Z,1.78
2019-03-20T00:49:08.901Z,1.78
2019-03-20T00:51:34.692Z,1.81
2019-03-20T00:54:00.467Z,1.81
2019-03-20T00:56:26.255Z,1.91
2019-03-20T00:58:52.037Z,1.89
2019-03-20T01:01:17.819Z,1.96
2019-03-20T01:03:43.603Z,2.00
2019-03-20T01:06:09.403Z,2.05
2019-03-20T01:08:35.183Z,2.01
2019-03-20T01:11:01.000Z,2.01
2019-03-20T01:13:26.780Z,2.05
2019-03-20T01:15:52.561Z,2.02
2019-03-20T01:18:18.379Z,2.04
2019-03-20T01:20:44.166Z,2.03
2019-03-20T01:23:09.952Z,2.04
2019-03-20T01:25:35.743Z,2.05
2019-03-20T01:28:01.583Z,2.05
2019-03-20T01:30:30.633Z,2.05
2019-03-20T01:32:57.339Z,2.03
2019-03-20T01:35:24.000Z,2.02
2019-03-20T01:37:50.223Z,2.01
2019-03-20T01:40:16.006Z,2.07
2019-03-20T01:42:41.800Z,2.07
2019-03-20T01:45:08.080Z,2.11
2019-03-20T01:47:33.983Z,2.15
2019-03-20T01:49:59.760Z,2.10
2019-03-20T01:52:25.566Z,2.12
2019-03-20T01:54:51.348Z,2.08
2019-03-20T01:57:17.149Z,2.06
2019-03-20T01:59:42.938Z,2.04
2019-03-20T02:02:08.719Z,2.05
2019-03-20T02:04:34.513Z,2.03
2019-03-20T02:07:00.343Z,2.11
2019-03-20T02:09:26.111Z,2.13
2019-03-20T02:11:51.897Z,2.18
2019-03-20T02:14:17.689Z,2.20
2019-03-20T02:16:43.479Z,2.17
2019-03-20T02:19:09.285Z,2.17
2019-03-20T02:21:35.081Z,2.17
2019-03-20T02:24:00.922Z,2.19
2019-03-20T02:26:26.709Z,2.21
2019-03-20T02:28:52.509Z,2.21
2019-03-20T02:31:18.357Z,2.29
2019-03-20T02:33:44.201Z,2.37
2019-03-20T02:36:09.981Z,2.43
2019-03-20T02:38:35.781Z,2.54
2019-03-20T02:41:01.575Z,2.52
2019-03-20T02:43:27.463Z,2.56
2019-03-20T02:45:53.258Z,2.14
2019-03-20T02:48:19.050Z,2.58
2019-03-20T02:50:44.854Z,2.57
2019-03-20T02:53:10.631Z,2.64
2019-03-20T02:55:36.525Z,2.61
2019-03-20T02:58:02.314Z,2.63
2019-03-20T03:00:28.108Z,2.65
2019-03-20T03:02:53.887Z,2.67
2019-03-20T03:05:19.677Z,2.71
2019-03-20T03:07:45.462Z,2.73
2019-03-20T03:10:16.438Z,2.73
2019-03-20T03:12:42.210Z,2.76
2019-03-20T03:15:09.400Z,2.76
2019-03-20T03:17:35.198Z,2.79
2019-03-20T03:20:01.227Z,2.78
2019-03-20T03:22:27.005Z,2.80
2019-03-20T03:24:52.787Z,2.78
2019-03-20T03:27:18.582Z,2.78
2019-03-20T03:29:44.365Z,2.78
2019-03-20T03:32:10.162Z,2.79
2019-03-20T03:34:35.953Z,2.81
2019-03-20T03:37:01.738Z,2.89
2019-03-20T03:39:27.523Z,2.91
2019-03-20T03:41:53.427Z,2.93
2019-03-20T03:44:19.212Z,2.91
2019-03-20T03:46:45.105Z,2.93
2019-03-20T03:49:10.885Z,2.99
2019-03-20T03:51:36.690Z,3.01
2019-03-20T03:54:02.473Z,3.01
2019-03-20T03:56:28.260Z,3.01
2019-03-20T03:58:54.041Z,3.01
2019-03-20T04:01:19.835Z,3.00
2019-03-20T04:03:45.614Z,3.00
2019-03-20T04:06:11.409Z,3.03
2019-03-20T04:08:37.196Z,2.99
2019-03-20T04:11:03.004Z,2.98
2019-03-20T04:13:28.785Z,2.96
2019-03-20T04:15:54.566Z,2.88
2019-03-20T04:18:20.372Z,2.89
2019-03-20T04:20:46.151Z,2.86
2019-03-20T04:23:11.942Z,2.77
2019-03-20T04:25:37.730Z,2.71
2019-03-20T04:28:03.522Z,2.68
2019-03-20T04:30:29.312Z,2.63
2019-03-20T04:32:55.111Z,2.54
2019-03-20T04:35:20.894Z,2.53
2019-03-20T04:37:46.699Z,2.55
2019-03-20T04:40:16.280Z,2.60
2019-03-20T04:42:42.081Z,2.56
2019-03-20T04:45:12.789Z,2.59
2019-03-20T04:47:38.773Z,2.59
2019-03-20T04:50:08.365Z,2.63
2019-03-20T04:52:34.159Z,2.56
2019-03-20T04:54:59.942Z,2.57
2019-03-20T04:57:25.740Z,2.56
2019-03-20T04:59:51.524Z,2.56
2019-03-20T05:02:17.301Z,2.56
2019-03-20T05:04:43.098Z,2.57
2019-03-20T05:07:08.884Z,2.57
2019-03-20T05:09:34.672Z,2.61
2019-03-20T05:12:00.467Z,2.60
2019-03-20T05:14:26.267Z,2.62
2019-03-20T05:16:52.051Z,2.60
2019-03-20T05:19:17.848Z,2.68
2019-03-20T05:21:43.631Z,2.75
2019-03-20T05:24:09.428Z,2.82
2019-03-20T05:26:35.217Z,2.86
2019-03-20T05:29:01.027Z,2.90
2019-03-20T05:31:26.809Z,2.98
2019-03-20T05:33:52.607Z,3.05
2019-03-20T05:36:18.387Z,3.17
2019-03-20T05:38:44.271Z,3.29
2019-03-20T05:41:10.051Z,3.36
2019-03-20T05:43:35.846Z,3.47
2019-03-20T05:46:01.629Z,3.48
2019-03-20T05:48:27.459Z,3.56
2019-03-20T05:50:53.231Z,3.64
2019-03-20T05:53:19.023Z,3.69
2019-03-20T05:55:44.858Z,3.79
2019-03-20T05:58:10.638Z,3.82
2019-03-20T06:00:36.433Z,3.81
2019-03-20T06:03:02.418Z,3.86
2019-03-20T06:05:28.239Z,3.90
2019-03-20T06:07:54.017Z,3.92
2019-03-20T06:10:19.814Z,3.94
2019-03-20T06:12:45.603Z,3.94
2019-03-20T06:15:12.101Z,4.01
2019-03-20T06:17:37.894Z,4.08
2019-03-20T06:20:09.595Z,4.02
2019-03-20T06:22:35.388Z,4.07
2019-03-20T06:25:01.218Z,4.14
2019-03-20T06:27:27.005Z,4.14
2019-03-20T06:29:52.792Z,4.20
2019-03-20T06:32:18.581Z,4.30
2019-03-20T06:34:44.377Z,4.39
2019-03-20T06:37:10.166Z,4.46
2019-03-20T06:39:35.957Z,4.51
2019-03-20T06:42:01.748Z,4.62
2019-03-20T06:44:27.533Z,4.65
2019-03-20T06:46:53.330Z,4.71
2019-03-20T06:49:19.112Z,4.81
2019-03-20T06:51:44.921Z,4.94
2019-03-20T06:54:10.703Z,5.05
2019-03-20T06:56:36.509Z,5.05
2019-03-20T06:59:11.950Z,5.10
2019-03-20T07:01:38.549Z,5.10
2019-03-20T07:04:08.141Z,5.10
2019-03-20T07:06:40.706Z,5.14
2019-03-20T07:09:24.899Z,5.05
2019-03-20T07:11:50.696Z,5.04
2019-03-20T07:14:16.479Z,5.14
2019-03-20T07:16:42.281Z,5.19
2019-03-20T07:19:08.079Z,5.14
2019-03-20T07:21:33.876Z,5.18
2019-03-20T07:23:59.654Z,5.17
2019-03-20T07:26:25.453Z,5.26
2019-03-20T07:28:51.237Z,5.27
2019-03-20T07:31:17.223Z,5.29
2019-03-20T07:33:43.011Z,5.34
2019-03-20T07:36:08.998Z,5.44
2019-03-20T07:38:34.806Z,5.39
2019-03-20T07:41:00.603Z,5.44
2019-03-20T07:43:27.104Z,5.50
2019-03-20T07:45:52.989Z,5.61
2019-03-20T07:48:22.446Z,5.64
2019-03-20T07:50:46.475Z,5.74
2019-03-20T07:53:12.281Z,5.90
2019-03-20T07:55:38.064Z,5.95
2019-03-20T07:58:03.983Z,6.03
2019-03-20T08:00:29.761Z,6.15
2019-03-20T08:02:55.563Z,6.24
2019-03-20T08:05:29.120Z,6.34
2019-03-20T08:07:49.046Z,6.37
2019-03-20T08:10:16.330Z,6.36
2019-03-20T08:12:42.120Z,6.37
2019-03-20T08:15:13.905Z,6.34
2019-03-20T08:17:39.709Z,6.34
2019-03-20T08:20:12.310Z,6.49
2019-03-20T08:22:38.105Z,6.49
2019-03-20T08:25:05.284Z,6.48
2019-03-20T08:27:31.072Z,6.51
2019-03-20T08:29:56.876Z,6.56
2019-03-20T08:32:22.659Z,6.56
2019-03-20T08:34:48.454Z,6.66
2019-03-20T08:37:14.246Z,6.64
2019-03-20T08:39:40.041Z,6.71
2019-03-20T08:42:05.823Z,6.80
2019-03-20T08:44:31.621Z,6.83
2019-03-20T08:46:57.403Z,6.98
2019-03-20T08:49:23.200Z,7.01
2019-03-20T08:51:48.979Z,7.08
2019-03-20T08:54:14.775Z,7.09
2019-03-20T08:56:40.556Z,7.12
2019-03-20T08:59:06.349Z,7.05
2019-03-20T09:01:32.135Z,7.04
2019-03-20T09:03:57.929Z,7.06
2019-03-20T09:06:23.732Z,7.23
2019-03-20T09:08:49.525Z,7.23
2019-03-20T09:11:15.306Z,7.21
2019-03-20T09:13:41.106Z,7.20
2019-03-20T09:16:06.888Z,7.24
2019-03-20T09:18:32.701Z,7.30
2019-03-20T09:20:58.490Z,7.35
2019-03-20T09:23:24.277Z,7.37
2019-03-20T09:25:50.081Z,7.42
2019-03-20T09:28:15.866Z,7.49
2019-03-20T09:30:41.661Z,7.57
2019-03-20T09:33:07.450Z,7.65
2019-03-20T09:35:33.348Z,7.78
2019-03-20T09:37:59.134Z,7.72
2019-03-20T09:40:25.737Z,7.85
2019-03-20T09:42:51.533Z,7.91
2019-03-20T09:45:18.431Z,7.91
2019-03-20T09:47:44.229Z,7.85
2019-03-20T09:50:16.202Z,7.85
2019-03-20T09:52:41.995Z,7.77
2019-03-20T09:55:09.894Z,7.77
2019-03-20T09:57:35.693Z,7.91
2019-03-20T10:00:02.903Z,8.01
2019-03-20T10:02:28.689Z,8.11
2019-03-20T10:04:54.481Z,8.11
2019-03-20T10:07:20.263Z,8.31
2019-03-20T10:09:46.076Z,8.28
2019-03-20T10:12:11.861Z,8.36
2019-03-20T10:14:37.649Z,8.28
2019-03-20T10:17:03.444Z,8.30
2019-03-20T10:19:29.250Z,8.37
2019-03-20T10:21:55.059Z,8.31
2019-03-20T10:24:20.845Z,8.29
2019-03-20T10:26:46.650Z,8.49
2019-03-20T10:29:12.434Z,8.57
2019-03-20T10:31:38.238Z,8.54
2019-03-20T10:34:04.038Z,8.58
2019-03-20T10:36:29.852Z,8.57
2019-03-20T10:39:05.988Z,8.51
2019-03-20T10:41:23.348Z,7.77
2019-03-20T10:43:49.129Z,8.52
2019-03-20T10:46:14.931Z,8.64
2019-03-20T10:48:40.719Z,8.62
2019-03-20T10:51:06.518Z,8.62
2019-03-20T10:53:32.340Z,8.58
2019-03-20T10:55:58.101Z,8.48
2019-03-20T10:58:23.893Z,8.49
2019-03-20T11:00:49.716Z,8.42
2019-03-20T11:03:15.536Z,8.42
2019-03-20T11:05:41.295Z,8.51
2019-03-20T11:08:07.086Z,8.57
2019-03-20T11:10:33.086Z,8.51
2019-03-20T11:12:58.877Z,8.49
2019-03-20T11:15:24.865Z,8.52
2019-03-20T11:17:50.675Z,8.54
2019-03-20T11:20:17.459Z,8.52
2019-03-20T11:22:43.257Z,8.48
2019-03-20T11:25:17.663Z,8.47
2019-03-20T11:27:43.474Z,8.46
2019-03-20T11:30:13.064Z,8.53
2019-03-20T11:32:40.048Z,8.57
2019-03-20T11:35:06.070Z,8.57
2019-03-20T11:37:31.887Z,8.57
2019-03-20T11:39:57.671Z,8.55
2019-03-20T11:42:23.467Z,8.55
2019-03-20T11:44:49.245Z,8.40
2019-03-20T11:47:15.139Z,8.45
2019-03-20T11:49:40.958Z,8.43
2019-03-20T11:52:06.746Z,8.39
2019-03-20T11:54:32.537Z,8.37
2019-03-20T11:56:58.487Z,8.33
2019-03-20T11:59:24.296Z,8.33
2019-03-20T12:01:50.068Z,8.40
2019-03-20T12:04:15.865Z,8.38
2019-03-20T12:06:41.642Z,8.35
2019-03-20T12:09:07.641Z,8.32
2019-03-20T12:11:37.440Z,8.29
2019-03-20T12:14:01.188Z,8.23
2019-03-20T12:16:26.973Z,8.33
2019-03-20T12:18:52.790Z,8.35
2019-03-20T12:21:18.561Z,8.28
2019-03-20T12:23:44.366Z,8.31
2019-03-20T12:26:10.150Z,8.24
2019-03-20T12:28:35.962Z,8.29
2019-03-20T12:31:01.733Z,8.32
2019-03-20T12:33:27.534Z,8.30
2019-03-20T12:35:53.321Z,8.35
2019-03-20T12:38:19.125Z,8.47
2019-03-20T12:40:44.904Z,8.53
2019-03-20T12:43:10.706Z,8.52
2019-03-20T12:45:37.488Z,8.58
2019-03-20T12:48:04.977Z,8.71
2019-03-20T12:50:30.782Z,8.72
2019-03-20T12:52:56.761Z,8.72
2019-03-20T12:55:22.567Z,8.77
2019-03-20T12:57:48.351Z,8.81
2019-03-20T13:00:17.155Z,8.85
2019-03-20T13:02:43.052Z,8.81
2019-03-20T13:05:11.158Z,8.87
2019-03-20T13:07:36.957Z,8.90
2019-03-20T13:10:05.775Z,8.96
2019-03-20T13:12:31.667Z,8.94
2019-03-20T13:14:57.464Z,8.95
2019-03-20T13:17:23.267Z,9.03
2019-03-20T13:19:49.069Z,9.03
2019-03-20T13:22:14.858Z,9.06
2019-03-20T13:24:40.659Z,9.17
2019-03-20T13:27:06.447Z,9.15
2019-03-20T13:29:32.240Z,9.20
2019-03-20T13:31:58.020Z,9.20
2019-03-20T13:34:23.854Z,9.19
2019-03-20T13:36:49.637Z,9.24
2019-03-20T13:39:15.422Z,9.34
2019-03-20T13:41:41.219Z,9.47
2019-03-20T13:44:07.004Z,9.47
2019-03-20T13:46:32.800Z,9.49
2019-03-20T13:48:58.631Z,9.52
2019-03-20T13:51:24.428Z,9.51
2019-03-20T13:53:50.222Z,9.49
2019-03-20T13:56:16.011Z,9.48
2019-03-20T13:58:41.802Z,9.55
2019-03-20T14:01:07.590Z,9.51
2019-03-20T14:03:33.372Z,9.41
2019-03-20T14:05:59.173Z,9.34
2019-03-20T14:08:24.958Z,9.26
2019-03-20T14:10:50.989Z,9.27
2019-03-20T14:13:16.856Z,9.23
2019-03-20T14:15:43.319Z,9.23
2019-03-20T14:18:13.614Z,9.29
2019-03-20T14:20:39.412Z,9.30
2019-03-20T14:23:05.215Z,9.30
2019-03-20T14:25:30.999Z,9.34
2019-03-20T14:27:56.808Z,9.44
2019-03-20T14:30:29.853Z,9.48
2019-03-20T14:32:55.665Z,9.44
2019-03-20T14:35:21.435Z,9.51
2019-03-20T14:37:47.329Z,9.50
2019-03-20T14:40:18.900Z,9.48
2019-03-20T14:42:44.706Z,9.52
2019-03-20T14:45:12.491Z,9.56
2019-03-20T14:47:42.096Z,9.54
2019-03-20T14:50:09.796Z,9.64
2019-03-20T14:52:35.605Z,9.61
2019-03-20T14:55:01.488Z,9.70
2019-03-20T14:57:27.288Z,9.67
2019-03-20T14:59:53.081Z,9.62
2019-03-20T15:02:18.890Z,9.58
2019-03-20T15:04:44.667Z,9.60
2019-03-20T15:07:10.468Z,9.62
2019-03-20T15:09:36.250Z,9.63
2019-03-20T15:12:02.053Z,9.58
2019-03-20T15:14:27.845Z,9.59
2019-03-20T15:16:53.625Z,9.61
2019-03-20T15:19:19.443Z,9.59
2019-03-20T15:21:45.221Z,9.58
2019-03-20T15:24:11.027Z,9.58
2019-03-20T15:26:36.813Z,9.54
2019-03-20T15:29:02.809Z,9.61
2019-03-20T15:31:28.603Z,9.61
2019-03-20T15:33:54.405Z,9.62
2019-03-20T15:36:20.193Z,9.64
2019-03-20T15:38:45.998Z,9.64
2019-03-20T15:41:13.918Z,9.62
2019-03-20T15:43:39.481Z,9.64
2019-03-20T15:46:05.255Z,9.58
2019-03-20T15:48:31.066Z,9.65
2019-03-20T15:50:56.863Z,9.75
2019-03-20T15:53:22.656Z,9.75
2019-03-20T15:55:48.444Z,9.80
2019-03-20T15:58:14.242Z,9.81
2019-03-20T16:00:40.029Z,9.72
2019-03-20T16:03:12.191Z,9.75
2019-03-20T16:05:38.084Z,9.67
2019-03-20T16:08:04.075Z,9.75
2019-03-20T16:10:29.967Z,9.72
2019-03-20T16:12:55.747Z,9.68
2019-03-20T16:15:22.447Z,9.70
2019-03-20T16:17:48.258Z,9.64
2019-03-20T16:20:14.648Z,9.61
2019-03-20T16:22:40.451Z,9.61
2019-03-20T16:25:18.122Z,9.61
2019-03-20T16:27:43.913Z,9.63
2019-03-20T16:30:15.077Z,9.54
2019-03-20T16:32:40.867Z,9.60
2019-03-20T16:35:07.968Z,9.57
2019-03-20T16:37:33.760Z,9.51
2019-03-20T16:39:59.552Z,9.56
2019-03-20T16:42:25.342Z,9.52
2019-03-20T16:44:51.146Z,9.52
2019-03-20T16:47:16.942Z,9.49
2019-03-20T16:49:42.760Z,9.45
2019-03-20T16:52:08.545Z,9.40
2019-03-20T16:54:34.346Z,9.40
2019-03-20T16:57:00.145Z,9.41
2019-03-20T16:59:25.934Z,9.43
2019-03-20T17:01:51.715Z,9.41
2019-03-20T17:04:17.526Z,9.32
2019-03-20T17:06:43.356Z,9.30
2019-03-20T17:09:09.147Z,9.33
2019-03-20T17:11:38.526Z,9.32
2019-03-20T17:14:02.851Z,9.30
2019-03-20T17:16:28.699Z,9.30
2019-03-20T17:18:54.491Z,9.25
2019-03-20T17:21:20.296Z,9.25
2019-03-20T17:23:46.083Z,9.24
2019-03-20T17:26:11.883Z,9.23
2019-03-20T17:28:37.684Z,9.23
2019-03-20T17:31:03.485Z,9.23
2019-03-20T17:33:29.266Z,9.25
2019-03-20T17:35:55.062Z,9.25
2019-03-20T17:38:20.852Z,9.27
2019-03-20T17:40:46.646Z,9.21
2019-03-20T17:43:12.439Z,9.21
2019-03-20T17:45:38.254Z,9.15
2019-03-20T17:48:04.164Z,9.20
2019-03-20T17:50:33.747Z,9.16
2019-03-20T17:52:59.936Z,9.19
2019-03-20T17:55:26.034Z,9.12
2019-03-20T17:57:51.843Z,9.14
2019-03-20T18:00:28.103Z,9.14
2019-03-20T18:02:53.928Z,9.09
2019-03-20T18:05:19.701Z,9.09
2019-03-20T18:07:45.501Z,9.16
2019-03-20T18:10:11.282Z,9.18
2019-03-20T18:12:37.087Z,9.19
2019-03-20T18:15:06.574Z,9.22
2019-03-20T18:17:32.381Z,9.23
2019-03-20T18:19:58.173Z,9.16
2019-03-20T18:22:24.029Z,9.14
2019-03-20T18:24:49.770Z,9.18
2019-03-20T18:27:15.572Z,9.20
2019-03-20T18:29:43.303Z,9.23
2019-03-20T18:32:09.061Z,9.16
2019-03-20T18:34:34.882Z,9.23
2019-03-20T18:37:00.683Z,9.29
2019-03-20T18:39:26.466Z,9.23
2019-03-20T18:41:57.697Z,9.28
2019-03-20T18:44:19.966Z,9.28
2019-03-20T18:46:45.772Z,9.20
2019-03-20T18:49:11.551Z,9.20
2019-03-20T18:51:37.365Z,9.18
2019-03-20T18:54:03.551Z,9.22
2019-03-20T18:56:29.432Z,9.24
2019-03-20T18:58:55.227Z,9.23
2019-03-20T19:01:21.018Z,9.27
2019-03-20T19:03:49.829Z,9.24
2019-03-20T19:06:22.100Z,9.25
2019-03-20T19:08:47.912Z,9.19
2019-03-20T19:11:13.779Z,9.10
2019-03-20T19:13:39.571Z,9.13
2019-03-20T19:16:05.365Z,9.15
2019-03-20T19:18:31.183Z,9.12
2019-03-20T19:20:57.008Z,9.16
2019-03-20T19:23:22.797Z,9.16
2019-03-20T19:25:48.584Z,9.18
2019-03-20T19:28:14.402Z,9.10
2019-03-20T19:30:40.170Z,9.10
2019-03-20T19:33:05.973Z,9.06
2019-03-20T19:35:31.903Z,8.93
2019-03-20T19:37:57.698Z,8.93
2019-03-20T19:40:23.484Z,9.04
2019-03-20T19:42:49.318Z,9.04
2019-03-20T19:45:16.104Z,9.01
2019-03-20T19:47:41.892Z,8.92
2019-03-20T19:50:13.127Z,8.92
2019-03-20T19:52:38.929Z,8.91
2019-03-20T19:55:07.024Z,8.91
2019-03-20T19:57:32.828Z,8.99
2019-03-20T19:59:58.625Z,8.97
2019-03-20T20:02:24.409Z,8.96
2019-03-20T20:04:50.236Z,8.97
2019-03-20T20:07:16.021Z,8.89
2019-03-20T20:09:41.816Z,8.92
2019-03-20T20:12:07.605Z,8.92
2019-03-20T20:14:33.399Z,8.94
2019-03-20T20:16:59.199Z,8.93
2019-03-20T20:19:25.014Z,8.92
2019-03-20T20:21:50.804Z,8.80
2019-03-20T20:24:16.600Z,8.82
2019-03-20T20:26:42.384Z,8.76
2019-03-20T20:29:08.185Z,8.85
2019-03-20T20:31:33.988Z,8.82
2019-03-20T20:33:59.782Z,8.82
2019-03-20T20:36:25.578Z,8.83
2019-03-20T20:38:51.368Z,8.84
2019-03-20T20:41:17.162Z,8.82
2019-03-20T20:43:42.946Z,8.87
2019-03-20T20:46:08.740Z,8.87
2019-03-20T20:48:34.523Z,8.83
2019-03-20T20:51:00.327Z,8.89
2019-03-20T20:53:26.110Z,8.91
2019-03-20T20:55:51.919Z,8.92
2019-03-20T20:58:18.011Z,8.83
2019-03-20T21:00:43.817Z,8.80
2019-03-20T21:03:09.603Z,8.80
2019-03-20T21:05:35.416Z,8.85
2019-03-20T21:08:01.241Z,8.86
2019-03-20T21:10:27.040Z,8.88
2019-03-20T21:12:56.798Z,8.84
2019-03-20T21:15:33.146Z,8.88
2019-03-20T21:18:15.073Z,8.88
2019-03-20T21:20:41.395Z,8.82
2019-03-20T21:23:40.083Z,8.84
2019-03-20T21:26:25.018Z,8.84
2019-03-20T21:29:28.287Z,8.79
2019-03-20T21:32:10.218Z,8.79
2019-03-20T21:34:56.453Z,8.83
2019-03-20T21:37:44.653Z,8.85
2019-03-20T21:40:11.947Z,8.85
2019-03-20T21:43:06.598Z,8.86
2019-03-20T21:45:46.820Z,8.86
2019-03-20T21:48:12.629Z,8.85
2019-03-20T21:51:00.607Z,8.85
2019-03-20T21:54:07.245Z,8.92
2019-03-20T21:56:39.878Z,8.92
2019-03-20T21:59:12.507Z,8.96
2019-03-20T22:02:03.534Z,8.96
2019-03-20T22:04:29.327Z,8.90
2019-03-20T22:07:09.253Z,8.92
2019-03-20T22:09:50.909Z,8.98
2019-03-20T22:12:29.853Z,8.94
2019-03-20T22:15:16.339Z,8.94
2019-03-20T22:18:15.168Z,9.01
2019-03-20T22:20:44.757Z,8.97
2019-03-20T22:23:23.448Z,9.01
2019-03-20T22:26:08.276Z,9.04
2019-03-20T22:28:54.847Z,9.10
2019-03-20T22:31:20.633Z,9.10
2019-03-20T22:34:24.126Z,8.97
2019-03-20T22:36:49.914Z,9.06
2019-03-20T22:39:34.640Z,9.06
2019-03-20T22:42:07.034Z,9.03
2019-03-20T22:44:34.442Z,9.05
2019-03-20T22:47:26.617Z,9.08
2019-03-20T22:50:05.514Z,9.06
2019-03-20T22:52:43.947Z,9.05
2019-03-20T22:55:33.622Z,9.05
2019-03-20T22:58:06.010Z,9.05
2019-03-20T23:00:32.305Z,9.01
2019-03-20T23:03:04.430Z,9.01
2019-03-20T23:05:30.244Z,9.06
2019-03-20T23:07:56.026Z,9.02
2019-03-20T23:10:21.820Z,9.00
2019-03-20T23:12:47.608Z,8.97
2019-03-20T23:15:19.557Z,9.01
2019-03-20T23:17:45.346Z,8.94
2019-03-20T23:20:14.662Z,8.85
2019-03-20T23:22:40.752Z,8.84
2019-03-20T23:25:09.663Z,8.80
2019-03-20T23:27:35.462Z,8.85
2019-03-20T23:30:01.597Z,8.85
2019-03-20T23:32:27.388Z,8.84
2019-03-20T23:34:53.179Z,8.79
2019-03-20T23:37:19.047Z,8.83
2019-03-20T23:39:44.840Z,8.81
2019-03-20T23:42:10.625Z,8.83
2019-03-20T23:44:36.423Z,8.85
2019-03-20T23:47:02.215Z,8.90
2019-03-20T23:49:28.011Z,8.90
2019-03-20T23:51:54.205Z,8.88
2019-03-20T23:54:23.860Z,8.98
2019-03-20T23:56:49.632Z,8.98
2019-03-20T23:59:15.436Z,8.99
